sensor_id;sensor_type;location;lat;lon;timestamp;pressure;altitude;pressure_sealevel;temperature;humidity
80627;BME280;69982;51.758;5.784;2023-09-07T00:00:45;101896.73;;;22.71;58.92
80627;BME280;69982;51.758;5.784;2023-09-07T00:03:32;101898.95;;;22.60;59.28
80627;BME280;69982;51.758;5.784;2023-09-07T00:05:58;101899.61;;;22.48;59.43
80627;BME280;69982;51.758;5.784;2023-09-07T00:08:24;101900.67;;;22.37;59.79
80627;BME280;69982;51.758;5.784;2023-09-07T00:10:51;101899.59;;;22.23;60.08
80627;BME280;69982;51.758;5.784;2023-09-07T00:13:18;101896.05;;;22.14;60.46
80627;BME280;69982;51.758;5.784;2023-09-07T00:15:44;101893.86;;;22.07;60.83
80627;BME280;69982;51.758;5.784;2023-09-07T00:18:10;101893.21;;;22.01;60.86
80627;BME280;69982;51.758;5.784;2023-09-07T00:20:37;101893.17;;;21.94;60.96
80627;BME280;69982;51.758;5.784;2023-09-07T00:23:04;101892.66;;;21.89;60.93
80627;BME280;69982;51.758;5.784;2023-09-07T00:25:30;101885.83;;;21.82;61.06
80627;BME280;69982;51.758;5.784;2023-09-07T00:27:56;101886.65;;;21.77;61.07
80627;BME280;69982;51.758;5.784;2023-09-07T00:30:23;101884.73;;;21.72;61.25
80627;BME280;69982;51.758;5.784;2023-09-07T00:32:49;101891.55;;;21.67;61.42
80627;BME280;69982;51.758;5.784;2023-09-07T00:35:16;101887.51;;;21.63;61.52
80627;BME280;69982;51.758;5.784;2023-09-07T00:37:42;101887.47;;;21.61;61.52
80627;BME280;69982;51.758;5.784;2023-09-07T00:40:09;101883.71;;;21.62;61.51
80627;BME280;69982;51.758;5.784;2023-09-07T00:42:36;101882.11;;;21.63;61.60
80627;BME280;69982;51.758;5.784;2023-09-07T00:45:03;101875.60;;;21.62;61.74
80627;BME280;69982;51.758;5.784;2023-09-07T00:47:29;101874.23;;;21.60;61.78
80627;BME280;69982;51.758;5.784;2023-09-07T00:49:56;101867.06;;;21.56;61.87
80627;BME280;69982;51.758;5.784;2023-09-07T00:52:24;101861.83;;;21.50;62.12
80627;BME280;69982;51.758;5.784;2023-09-07T00:54:50;101865.11;;;21.46;62.19
80627;BME280;69982;51.758;5.784;2023-09-07T00:57:17;101863.83;;;21.41;62.33
80627;BME280;69982;51.758;5.784;2023-09-07T00:59:44;101867.95;;;21.32;62.42
80627;BME280;69982;51.758;5.784;2023-09-07T01:02:10;101863.69;;;21.24;62.72
80627;BME280;69982;51.758;5.784;2023-09-07T01:04:37;101864.55;;;21.17;62.87
80627;BME280;69982;51.758;5.784;2023-09-07T01:07:17;101867.22;;;21.12;63.04
80627;BME280;69982;51.758;5.784;2023-09-07T01:09:47;101867.43;;;21.09;63.00
80627;BME280;69982;51.758;5.784;2023-09-07T01:12:15;101866.46;;;21.08;62.95
80627;BME280;69982;51.758;5.784;2023-09-07T01:14:43;101867.17;;;21.07;63.07
80627;BME280;69982;51.758;5.784;2023-09-07T01:17:10;101867.60;;;21.04;62.93
80627;BME280;69982;51.758;5.784;2023-09-07T01:19:38;101864.54;;;21.01;63.03
80627;BME280;69982;51.758;5.784;2023-09-07T01:22:06;101868.14;;;20.96;63.16
80627;BME280;69982;51.758;5.784;2023-09-07T01:24:33;101869.45;;;20.92;63.32
80627;BME280;69982;51.758;5.784;2023-09-07T01:27:02;101872.63;;;20.88;63.41
80627;BME280;69982;51.758;5.784;2023-09-07T01:29:29;101872.52;;;20.85;63.38
80627;BME280;69982;51.758;5.784;2023-09-07T01:31:56;101868.30;;;20.79;63.37
80627;BME280;69982;51.758;5.784;2023-09-07T01:34:23;101866.67;;;20.74;63.52
80627;BME280;69982;51.758;5.784;2023-09-07T01:36:50;101870.11;;;20.72;63.34
80627;BME280;69982;51.758;5.784;2023-09-07T01:39:16;101865.89;;;20.69;63.38
80627;BME280;69982;51.758;5.784;2023-09-07T01:41:43;101864.02;;;20.66;63.42
80627;BME280;69982;51.758;5.784;2023-09-07T01:44:09;101864.77;;;20.63;63.45
80627;BME280;69982;51.758;5.784;2023-09-07T01:46:35;101862.98;;;20.60;63.49
80627;BME280;69982;51.758;5.784;2023-09-07T01:49:02;101860.89;;;20.55;63.50
80627;BME280;69982;51.758;5.784;2023-09-07T01:51:28;101862.95;;;20.52;63.61
80627;BME280;69982;51.758;5.784;2023-09-07T01:53:54;101859.59;;;20.49;63.70
80627;BME280;69982;51.758;5.784;2023-09-07T01:56:21;101858.46;;;20.45;63.63
80627;BME280;69982;51.758;5.784;2023-09-07T01:58:47;101855.77;;;20.42;63.70
80627;BME280;69982;51.758;5.784;2023-09-07T02:01:25;101860.50;;;20.38;63.75
80627;BME280;69982;51.758;5.784;2023-09-07T02:03:51;101854.92;;;20.37;63.82
80627;BME280;69982;51.758;5.784;2023-09-07T02:06:18;101857.57;;;20.38;63.73
80627;BME280;69982;51.758;5.784;2023-09-07T02:08:44;101857.26;;;20.40;63.68
80627;BME280;69982;51.758;5.784;2023-09-07T02:11:11;101856.54;;;20.41;63.69
80627;BME280;69982;51.758;5.784;2023-09-07T02:13:37;101851.84;;;20.42;63.64
80627;BME280;69982;51.758;5.784;2023-09-07T02:16:04;101852.34;;;20.41;63.67
80627;BME280;69982;51.758;5.784;2023-09-07T02:18:32;101855.56;;;20.41;63.63
80627;BME280;69982;51.758;5.784;2023-09-07T02:21:02;101857.64;;;20.37;63.74
80627;BME280;69982;51.758;5.784;2023-09-07T02:23:32;101863.44;;;20.34;63.88
80627;BME280;69982;51.758;5.784;2023-09-07T02:25:59;101862.14;;;20.28;64.02
80627;BME280;69982;51.758;5.784;2023-09-07T02:28:26;101862.15;;;20.21;63.96
80627;BME280;69982;51.758;5.784;2023-09-07T02:30:53;101860.73;;;20.17;63.97
80627;BME280;69982;51.758;5.784;2023-09-07T02:33:19;101857.42;;;20.11;64.12
80627;BME280;69982;51.758;5.784;2023-09-07T02:35:49;101856.22;;;20.08;64.19
80627;BME280;69982;51.758;5.784;2023-09-07T02:38:15;101857.58;;;20.06;64.07
80627;BME280;69982;51.758;5.784;2023-09-07T02:40:43;101856.44;;;20.06;64.01
80627;BME280;69982;51.758;5.784;2023-09-07T02:43:10;101853.08;;;20.08;64.13
80627;BME280;69982;51.758;5.784;2023-09-07T02:45:38;101857.25;;;20.10;64.04
80627;BME280;69982;51.758;5.784;2023-09-07T02:48:05;101853.27;;;20.11;63.89
80627;BME280;69982;51.758;5.784;2023-09-07T02:50:32;101859.08;;;20.12;63.86
80627;BME280;69982;51.758;5.784;2023-09-07T02:52:59;101860.63;;;20.07;63.93
80627;BME280;69982;51.758;5.784;2023-09-07T02:55:27;101861.49;;;20.02;64.17
80627;BME280;69982;51.758;5.784;2023-09-07T02:57:53;101860.98;;;19.95;64.19
80627;BME280;69982;51.758;5.784;2023-09-07T03:00:21;101861.77;;;19.91;64.25
80627;BME280;69982;51.758;5.784;2023-09-07T03:02:47;101860.87;;;19.84;64.38
80627;BME280;69982;51.758;5.784;2023-09-07T03:05:15;101860.59;;;19.79;64.36
80627;BME280;69982;51.758;5.784;2023-09-07T03:07:41;101860.11;;;19.76;64.48
80627;BME280;69982;51.758;5.784;2023-09-07T03:10:08;101855.17;;;19.73;64.53
80627;BME280;69982;51.758;5.784;2023-09-07T03:12:35;101859.41;;;19.73;64.53
80627;BME280;69982;51.758;5.784;2023-09-07T03:15:01;101856.23;;;19.75;64.46
80627;BME280;69982;51.758;5.784;2023-09-07T03:17:30;101857.27;;;19.77;64.46
80627;BME280;69982;51.758;5.784;2023-09-07T03:19:56;101852.27;;;19.78;64.45
80627;BME280;69982;51.758;5.784;2023-09-07T03:22:23;101853.27;;;19.81;64.36
80627;BME280;69982;51.758;5.784;2023-09-07T03:24:50;101853.91;;;19.83;64.32
80627;BME280;69982;51.758;5.784;2023-09-07T03:27:16;101852.33;;;19.82;64.40
80627;BME280;69982;51.758;5.784;2023-09-07T03:29:44;101853.13;;;19.80;64.39
80627;BME280;69982;51.758;5.784;2023-09-07T03:32:10;101855.06;;;19.77;64.40
80627;BME280;69982;51.758;5.784;2023-09-07T03:34:36;101853.76;;;19.72;64.42
80627;BME280;69982;51.758;5.784;2023-09-07T03:37:03;101854.63;;;19.69;64.47
80627;BME280;69982;51.758;5.784;2023-09-07T03:39:32;101851.58;;;19.64;64.63
80627;BME280;69982;51.758;5.784;2023-09-07T03:41:59;101851.80;;;19.59;64.71
80627;BME280;69982;51.758;5.784;2023-09-07T03:44:25;101848.25;;;19.56;64.85
80627;BME280;69982;51.758;5.784;2023-09-07T03:46:51;101849.25;;;19.54;64.92
80627;BME280;69982;51.758;5.784;2023-09-07T03:49:17;101852.83;;;19.55;64.95
80627;BME280;69982;51.758;5.784;2023-09-07T03:51:44;101847.46;;;19.58;64.92
80627;BME280;69982;51.758;5.784;2023-09-07T03:54:10;101850.59;;;19.62;64.79
80627;BME280;69982;51.758;5.784;2023-09-07T03:56:36;101856.26;;;19.66;64.68
80627;BME280;69982;51.758;5.784;2023-09-07T03:59:02;101854.59;;;19.69;64.53
80627;BME280;69982;51.758;5.784;2023-09-07T04:01:29;101853.40;;;19.75;64.35
80627;BME280;69982;51.758;5.784;2023-09-07T04:03:56;101855.09;;;19.82;63.92
80627;BME280;69982;51.758;5.784;2023-09-07T04:06:22;101858.14;;;19.86;64.01
80627;BME280;69982;51.758;5.784;2023-09-07T04:08:50;101858.73;;;19.88;64.00
80627;BME280;69982;51.758;5.784;2023-09-07T04:11:16;101857.92;;;19.87;64.01
80627;BME280;69982;51.758;5.784;2023-09-07T04:13:42;101857.58;;;19.85;63.92
80627;BME280;69982;51.758;5.784;2023-09-07T04:16:08;101856.50;;;19.84;63.98
80627;BME280;69982;51.758;5.784;2023-09-07T04:18:35;101856.48;;;19.81;63.64
80627;BME280;69982;51.758;5.784;2023-09-07T04:21:08;101855.51;;;19.80;63.95
80627;BME280;69982;51.758;5.784;2023-09-07T04:23:35;101851.98;;;19.80;63.85
80627;BME280;69982;51.758;5.784;2023-09-07T04:26:08;101851.80;;;19.83;63.66
80627;BME280;69982;51.758;5.784;2023-09-07T04:28:35;101847.96;;;19.87;63.74
80627;BME280;69982;51.758;5.784;2023-09-07T04:31:03;101845.31;;;19.92;63.66
80627;BME280;69982;51.758;5.784;2023-09-07T04:33:30;101847.85;;;19.96;63.55
80627;BME280;69982;51.758;5.784;2023-09-07T04:36:06;101847.80;;;20.00;63.45
80627;BME280;69982;51.758;5.784;2023-09-07T04:38:32;101847.39;;;20.05;63.40
80627;BME280;69982;51.758;5.784;2023-09-07T04:41:12;101849.82;;;20.08;63.19
80627;BME280;69982;51.758;5.784;2023-09-07T04:43:40;101849.37;;;20.10;63.19
80627;BME280;69982;51.758;5.784;2023-09-07T04:46:10;101849.02;;;20.11;63.09
80627;BME280;69982;51.758;5.784;2023-09-07T04:48:36;101852.13;;;20.11;63.12
80627;BME280;69982;51.758;5.784;2023-09-07T04:51:06;101854.67;;;20.12;63.17
80627;BME280;69982;51.758;5.784;2023-09-07T04:53:34;101855.00;;;20.09;62.96
80627;BME280;69982;51.758;5.784;2023-09-07T04:56:02;101855.89;;;20.08;62.95
80627;BME280;69982;51.758;5.784;2023-09-07T04:58:29;101859.91;;;20.06;62.89
80627;BME280;69982;51.758;5.784;2023-09-07T05:01:03;101861.25;;;20.04;62.74
80627;BME280;69982;51.758;5.784;2023-09-07T05:03:29;101861.39;;;20.05;62.78
80627;BME280;69982;51.758;5.784;2023-09-07T05:05:56;101859.77;;;20.05;62.72
80627;BME280;69982;51.758;5.784;2023-09-07T05:08:23;101862.24;;;20.07;62.94
80627;BME280;69982;51.758;5.784;2023-09-07T05:11:01;101862.50;;;20.08;62.91
80627;BME280;69982;51.758;5.784;2023-09-07T05:13:29;101862.55;;;20.10;62.85
80627;BME280;69982;51.758;5.784;2023-09-07T05:15:57;101863.45;;;20.10;62.87
80627;BME280;69982;51.758;5.784;2023-09-07T05:18:24;101862.46;;;20.08;62.85
80627;BME280;69982;51.758;5.784;2023-09-07T05:20:50;101868.61;;;20.09;62.66
80627;BME280;69982;51.758;5.784;2023-09-07T05:23:21;101869.66;;;20.08;62.70
80627;BME280;69982;51.758;5.784;2023-09-07T05:25:50;101870.27;;;20.03;62.75
80627;BME280;69982;51.758;5.784;2023-09-07T05:28:19;101873.52;;;19.98;63.03
80627;BME280;69982;51.758;5.784;2023-09-07T05:30:46;101878.90;;;19.91;63.00
80627;BME280;69982;51.758;5.784;2023-09-07T05:33:15;101877.16;;;19.83;63.18
80627;BME280;69982;51.758;5.784;2023-09-07T05:35:42;101880.67;;;19.77;63.34
80627;BME280;69982;51.758;5.784;2023-09-07T05:38:09;101883.59;;;19.70;63.65
80627;BME280;69982;51.758;5.784;2023-09-07T05:40:40;101886.71;;;19.63;63.99
80627;BME280;69982;51.758;5.784;2023-09-07T05:43:07;101888.55;;;19.58;64.10
80627;BME280;69982;51.758;5.784;2023-09-07T05:45:36;101895.65;;;19.57;64.30
80627;BME280;69982;51.758;5.784;2023-09-07T05:48:06;101895.38;;;19.55;64.60
80627;BME280;69982;51.758;5.784;2023-09-07T05:50:34;101902.09;;;19.56;64.85
80627;BME280;69982;51.758;5.784;2023-09-07T05:53:01;101900.65;;;19.56;65.05
80627;BME280;69982;51.758;5.784;2023-09-07T05:55:28;101905.05;;;19.55;65.21
80627;BME280;69982;51.758;5.784;2023-09-07T05:57:55;101904.25;;;19.56;65.19
80627;BME280;69982;51.758;5.784;2023-09-07T06:00:21;101906.19;;;19.55;65.41
80627;BME280;69982;51.758;5.784;2023-09-07T06:02:49;101908.17;;;19.54;65.50
80627;BME280;69982;51.758;5.784;2023-09-07T06:05:16;101911.45;;;19.54;65.83
80627;BME280;69982;51.758;5.784;2023-09-07T06:07:43;101918.48;;;19.55;65.80
80627;BME280;69982;51.758;5.784;2023-09-07T06:10:10;101915.08;;;19.58;65.91
80627;BME280;69982;51.758;5.784;2023-09-07T06:12:36;101915.09;;;19.64;65.92
80627;BME280;69982;51.758;5.784;2023-09-07T06:15:03;101917.54;;;19.74;65.66
80627;BME280;69982;51.758;5.784;2023-09-07T06:17:29;101912.56;;;19.84;65.77
80627;BME280;69982;51.758;5.784;2023-09-07T06:19:55;101914.98;;;19.96;65.81
80627;BME280;69982;51.758;5.784;2023-09-07T06:22:23;101920.83;;;20.07;65.86
80627;BME280;69982;51.758;5.784;2023-09-07T06:24:55;101919.71;;;20.20;65.34
80627;BME280;69982;51.758;5.784;2023-09-07T06:27:21;101923.63;;;20.33;65.13
80627;BME280;69982;51.758;5.784;2023-09-07T06:29:47;101924.68;;;20.46;64.95
80627;BME280;69982;51.758;5.784;2023-09-07T06:32:13;101932.42;;;20.58;64.72
80627;BME280;69982;51.758;5.784;2023-09-07T06:34:40;101937.70;;;20.71;64.71
80627;BME280;69982;51.758;5.784;2023-09-07T06:37:06;101938.91;;;20.81;64.43
80627;BME280;69982;51.758;5.784;2023-09-07T06:39:33;101938.30;;;20.90;64.21
80627;BME280;69982;51.758;5.784;2023-09-07T06:41:59;101941.04;;;20.99;63.74
80627;BME280;69982;51.758;5.784;2023-09-07T06:44:26;101940.01;;;21.06;63.62
80627;BME280;69982;51.758;5.784;2023-09-07T06:46:52;101945.25;;;21.16;63.62
80627;BME280;69982;51.758;5.784;2023-09-07T06:49:18;101942.67;;;21.26;63.28
80627;BME280;69982;51.758;5.784;2023-09-07T06:51:45;101948.13;;;21.35;62.80
80627;BME280;69982;51.758;5.784;2023-09-07T06:54:11;101945.08;;;21.44;62.73
80627;BME280;69982;51.758;5.784;2023-09-07T06:56:39;101943.47;;;21.54;62.36
80627;BME280;69982;51.758;5.784;2023-09-07T06:59:05;101942.07;;;21.62;62.09
80627;BME280;69982;51.758;5.784;2023-09-07T07:01:31;101947.43;;;21.74;62.15
80627;BME280;69982;51.758;5.784;2023-09-07T07:03:58;101941.94;;;21.83;62.28
80627;BME280;69982;51.758;5.784;2023-09-07T07:06:24;101945.80;;;21.95;62.01
80627;BME280;69982;51.758;5.784;2023-09-07T07:08:51;101945.18;;;22.08;61.81
80627;BME280;69982;51.758;5.784;2023-09-07T07:11:19;101946.98;;;22.20;61.62
80627;BME280;69982;51.758;5.784;2023-09-07T07:13:45;101947.21;;;22.32;61.46
80627;BME280;69982;51.758;5.784;2023-09-07T07:16:11;101946.24;;;22.44;61.39
80627;BME280;69982;51.758;5.784;2023-09-07T07:18:37;101951.99;;;22.57;61.08
80627;BME280;69982;51.758;5.784;2023-09-07T07:21:05;101951.55;;;22.71;60.89
80627;BME280;69982;51.758;5.784;2023-09-07T07:23:31;101950.29;;;22.82;60.49
80627;BME280;69982;51.758;5.784;2023-09-07T07:25:58;101952.59;;;22.94;60.22
80627;BME280;69982;51.758;5.784;2023-09-07T07:28:24;101954.35;;;23.09;59.40
80627;BME280;69982;51.758;5.784;2023-09-07T07:30:50;101955.21;;;23.19;59.10
80627;BME280;69982;51.758;5.784;2023-09-07T07:33:18;101951.36;;;23.29;59.05
80627;BME280;69982;51.758;5.784;2023-09-07T07:35:44;101956.02;;;23.40;58.80
80627;BME280;69982;51.758;5.784;2023-09-07T07:38:11;101956.64;;;23.50;58.74
80627;BME280;69982;51.758;5.784;2023-09-07T07:40:40;101955.92;;;23.63;58.33
80627;BME280;69982;51.758;5.784;2023-09-07T07:43:06;101959.58;;;23.75;57.92
80627;BME280;69982;51.758;5.784;2023-09-07T07:45:33;101952.98;;;23.83;57.24
80627;BME280;69982;51.758;5.784;2023-09-07T07:48:04;101957.06;;;23.95;56.80
80627;BME280;69982;51.758;5.784;2023-09-07T07:50:40;101952.45;;;24.03;56.23
80627;BME280;69982;51.758;5.784;2023-09-07T07:53:06;101953.22;;;24.13;56.44
80627;BME280;69982;51.758;5.784;2023-09-07T07:55:39;101950.40;;;24.20;56.42
80627;BME280;69982;51.758;5.784;2023-09-07T07:58:07;101948.73;;;24.32;55.95
80627;BME280;69982;51.758;5.784;2023-09-07T08:00:37;101944.91;;;24.41;55.53
80627;BME280;69982;51.758;5.784;2023-09-07T08:03:04;101943.23;;;24.47;55.82
80627;BME280;69982;51.758;5.784;2023-09-07T08:05:34;101945.52;;;24.63;55.65
80627;BME280;69982;51.758;5.784;2023-09-07T08:08:01;101946.57;;;24.74;55.10
80627;BME280;69982;51.758;5.784;2023-09-07T08:10:28;101943.45;;;24.83;54.74
80627;BME280;69982;51.758;5.784;2023-09-07T08:12:56;101946.67;;;24.93;54.11
80627;BME280;69982;51.758;5.784;2023-09-07T08:15:23;101945.05;;;25.03;53.66
80627;BME280;69982;51.758;5.784;2023-09-07T08:17:51;101943.69;;;25.14;53.48
80627;BME280;69982;51.758;5.784;2023-09-07T08:20:18;101938.58;;;25.25;53.30
80627;BME280;69982;51.758;5.784;2023-09-07T08:22:44;101939.15;;;25.36;52.69
80627;BME280;69982;51.758;5.784;2023-09-07T08:25:12;101936.25;;;25.48;52.55
80627;BME280;69982;51.758;5.784;2023-09-07T08:27:40;101931.25;;;25.61;51.86
80627;BME280;69982;51.758;5.784;2023-09-07T08:30:11;101928.24;;;25.73;51.53
80627;BME280;69982;51.758;5.784;2023-09-07T08:32:38;101923.52;;;25.85;51.11
80627;BME280;69982;51.758;5.784;2023-09-07T08:35:05;101929.19;;;25.99;50.15
80627;BME280;69982;51.758;5.784;2023-09-07T08:37:34;101923.34;;;26.09;50.53
80627;BME280;69982;51.758;5.784;2023-09-07T08:40:00;101919.98;;;26.20;50.11
80627;BME280;69982;51.758;5.784;2023-09-07T08:42:27;101921.56;;;26.30;49.58
80627;BME280;69982;51.758;5.784;2023-09-07T08:44:54;101921.34;;;26.40;49.28
80627;BME280;69982;51.758;5.784;2023-09-07T08:47:25;101919.02;;;26.51;49.22
80627;BME280;69982;51.758;5.784;2023-09-07T08:49:56;101919.14;;;26.62;48.75
80627;BME280;69982;51.758;5.784;2023-09-07T08:52:23;101922.58;;;26.71;48.93
80627;BME280;69982;51.758;5.784;2023-09-07T08:54:50;101917.52;;;26.83;49.21
80627;BME280;69982;51.758;5.784;2023-09-07T08:57:18;101918.28;;;26.98;48.50
80627;BME280;69982;51.758;5.784;2023-09-07T08:59:45;101918.03;;;27.11;47.85
80627;BME280;69982;51.758;5.784;2023-09-07T09:02:12;101919.17;;;27.24;48.21
80627;BME280;69982;51.758;5.784;2023-09-07T09:04:38;101919.17;;;27.37;47.56
80627;BME280;69982;51.758;5.784;2023-09-07T09:07:05;101916.88;;;27.48;47.50
80627;BME280;69982;51.758;5.784;2023-09-07T09:09:31;101914.98;;;27.61;47.52
80627;BME280;69982;51.758;5.784;2023-09-07T09:12:11;101910.08;;;27.74;46.98
80627;BME280;69982;51.758;5.784;2023-09-07T09:14:39;101912.75;;;27.91;47.47
80627;BME280;69982;51.758;5.784;2023-09-07T09:17:14;101906.03;;;28.04;46.78
80627;BME280;69982;51.758;5.784;2023-09-07T09:19:41;101901.65;;;28.18;45.59
80627;BME280;69982;51.758;5.784;2023-09-07T09:22:08;101904.11;;;28.28;45.28
80627;BME280;69982;51.758;5.784;2023-09-07T09:24:35;101902.64;;;28.39;45.40
80627;BME280;69982;51.758;5.784;2023-09-07T09:27:02;101899.94;;;28.51;45.78
80627;BME280;69982;51.758;5.784;2023-09-07T09:29:28;101899.21;;;28.65;45.68
80627;BME280;69982;51.758;5.784;2023-09-07T09:31:55;101894.11;;;28.77;45.17
80627;BME280;69982;51.758;5.784;2023-09-07T09:34:21;101892.05;;;28.90;44.46
80627;BME280;69982;51.758;5.784;2023-09-07T09:36:48;101894.88;;;29.04;44.54
80627;BME280;69982;51.758;5.784;2023-09-07T09:39:24;101890.09;;;29.17;43.72
80627;BME280;69982;51.758;5.784;2023-09-07T09:41:52;101885.79;;;29.28;43.15
80627;BME280;69982;51.758;5.784;2023-09-07T09:44:21;101888.97;;;29.39;42.94
80627;BME280;69982;51.758;5.784;2023-09-07T09:46:52;101883.17;;;29.47;42.99
80627;BME280;69982;51.758;5.784;2023-09-07T09:49:21;101875.61;;;29.58;42.20
80627;BME280;69982;51.758;5.784;2023-09-07T09:51:51;101875.53;;;29.70;42.41
80627;BME280;69982;51.758;5.784;2023-09-07T09:54:17;101877.17;;;29.82;42.10
80627;BME280;69982;51.758;5.784;2023-09-07T09:56:45;101875.23;;;29.92;41.19
80627;BME280;69982;51.758;5.784;2023-09-07T09:59:13;101872.83;;;30.00;41.51
80627;BME280;69982;51.758;5.784;2023-09-07T10:01:47;101868.37;;;30.10;41.12
80627;BME280;69982;51.758;5.784;2023-09-07T10:04:17;101870.95;;;30.22;41.26
80627;BME280;69982;51.758;5.784;2023-09-07T10:07:04;101866.41;;;30.32;40.45
80627;BME280;69982;51.758;5.784;2023-09-07T10:09:34;101865.60;;;30.42;40.24
80627;BME280;69982;51.758;5.784;2023-09-07T10:12:03;101864.02;;;30.53;39.74
80627;BME280;69982;51.758;5.784;2023-09-07T10:14:41;101861.79;;;30.61;38.96
80627;BME280;69982;51.758;5.784;2023-09-07T10:17:08;101857.04;;;30.68;39.16
80627;BME280;69982;51.758;5.784;2023-09-07T10:19:35;101857.64;;;30.79;38.93
80627;BME280;69982;51.758;5.784;2023-09-07T10:22:04;101854.23;;;30.89;39.28
80627;BME280;69982;51.758;5.784;2023-09-07T10:24:32;101856.33;;;31.02;38.99
80627;BME280;69982;51.758;5.784;2023-09-07T10:27:03;101857.81;;;31.16;38.95
80627;BME280;69982;51.758;5.784;2023-09-07T10:29:43;101861.02;;;31.32;38.62
80627;BME280;69982;51.758;5.784;2023-09-07T10:32:11;101854.84;;;31.44;38.08
80627;BME280;69982;51.758;5.784;2023-09-07T10:34:42;101853.09;;;31.49;37.28
80627;BME280;69982;51.758;5.784;2023-09-07T10:37:14;101853.20;;;31.55;37.22
80627;BME280;69982;51.758;5.784;2023-09-07T10:39:42;101847.30;;;31.61;37.21
80627;BME280;69982;51.758;5.784;2023-09-07T10:42:21;101843.48;;;31.70;37.70
80627;BME280;69982;51.758;5.784;2023-09-07T10:44:48;101846.34;;;31.84;37.79
80627;BME280;69982;51.758;5.784;2023-09-07T10:47:14;101842.84;;;31.94;37.05
80627;BME280;69982;51.758;5.784;2023-09-07T10:49:41;101842.23;;;32.05;37.33
80627;BME280;69982;51.758;5.784;2023-09-07T10:52:08;101841.35;;;32.14;37.26
80627;BME280;69982;51.758;5.784;2023-09-07T10:54:35;101838.30;;;32.22;36.83
80627;BME280;69982;51.758;5.784;2023-09-07T10:57:11;101837.63;;;32.29;36.28
80627;BME280;69982;51.758;5.784;2023-09-07T10:59:44;101837.16;;;32.33;35.79
80627;BME280;69982;51.758;5.784;2023-09-07T11:02:12;101838.15;;;32.39;35.84
80627;BME280;69982;51.758;5.784;2023-09-07T11:04:38;101836.59;;;32.47;35.70
80627;BME280;69982;51.758;5.784;2023-09-07T11:07:04;101837.48;;;32.57;35.65
80627;BME280;69982;51.758;5.784;2023-09-07T11:09:31;101838.56;;;32.66;35.45
80627;BME280;69982;51.758;5.784;2023-09-07T11:12:04;101832.90;;;32.72;34.79
80627;BME280;69982;51.758;5.784;2023-09-07T11:14:30;101831.49;;;32.77;34.03
80627;BME280;69982;51.758;5.784;2023-09-07T11:16:57;101833.56;;;32.78;33.90
80627;BME280;69982;51.758;5.784;2023-09-07T11:19:23;101826.86;;;32.80;33.51
80627;BME280;69982;51.758;5.784;2023-09-07T11:21:53;101825.58;;;32.87;34.14
80627;BME280;69982;51.758;5.784;2023-09-07T11:24:19;101823.77;;;32.98;34.47
80627;BME280;69982;51.758;5.784;2023-09-07T11:26:47;101818.94;;;33.02;34.04
80627;BME280;69982;51.758;5.784;2023-09-07T11:29:14;101821.02;;;33.16;34.11
80627;BME280;69982;51.758;5.784;2023-09-07T11:31:42;101820.83;;;33.27;33.11
80627;BME280;69982;51.758;5.784;2023-09-07T11:34:11;101817.23;;;33.33;33.40
80627;BME280;69982;51.758;5.784;2023-09-07T11:36:39;101810.60;;;33.40;33.60
80627;BME280;69982;51.758;5.784;2023-09-07T11:39:06;101815.34;;;33.50;33.14
80627;BME280;69982;51.758;5.784;2023-09-07T11:41:42;101813.88;;;33.56;32.70
80627;BME280;69982;51.758;5.784;2023-09-07T11:44:10;101809.48;;;33.62;32.26
80627;BME280;69982;51.758;5.784;2023-09-07T11:46:36;101805.99;;;33.72;32.58
80627;BME280;69982;51.758;5.784;2023-09-07T11:49:03;101803.86;;;33.83;32.35
80627;BME280;69982;51.758;5.784;2023-09-07T11:51:31;101798.35;;;33.88;32.02
80627;BME280;69982;51.758;5.784;2023-09-07T11:53:57;101790.39;;;33.93;31.94
80627;BME280;69982;51.758;5.784;2023-09-07T11:56:25;101793.52;;;34.04;31.61
80627;BME280;69982;51.758;5.784;2023-09-07T11:58:51;101786.60;;;34.08;31.60
80627;BME280;69982;51.758;5.784;2023-09-07T12:01:17;101781.61;;;34.19;32.12
80627;BME280;69982;51.758;5.784;2023-09-07T12:03:44;101782.88;;;34.31;32.41
80627;BME280;69982;51.758;5.784;2023-09-07T12:06:10;101780.98;;;34.43;31.80
80627;BME280;69982;51.758;5.784;2023-09-07T12:08:37;101780.29;;;34.51;31.71
80627;BME280;69982;51.758;5.784;2023-09-07T12:11:03;101780.92;;;34.62;31.86
80627;BME280;69982;51.758;5.784;2023-09-07T12:13:30;101776.08;;;34.72;30.28
80627;BME280;69982;51.758;5.784;2023-09-07T12:15:56;101771.46;;;34.79;30.41
80627;BME280;69982;51.758;5.784;2023-09-07T12:18:22;101772.09;;;34.88;30.40
80627;BME280;69982;51.758;5.784;2023-09-07T12:20:50;101771.43;;;34.96;30.34
80627;BME280;69982;51.758;5.784;2023-09-07T12:23:16;101775.71;;;35.07;30.22
80627;BME280;69982;51.758;5.784;2023-09-07T12:25:43;101774.30;;;35.14;30.08
80627;BME280;69982;51.758;5.784;2023-09-07T12:28:11;101772.31;;;35.23;30.22
80627;BME280;69982;51.758;5.784;2023-09-07T12:30:44;101768.84;;;35.39;30.51
80627;BME280;69982;51.758;5.784;2023-09-07T12:33:15;101768.23;;;35.54;30.49
80627;BME280;69982;51.758;5.784;2023-09-07T12:35:41;101769.03;;;35.67;29.92
80627;BME280;69982;51.758;5.784;2023-09-07T12:38:07;101763.23;;;35.75;29.43
80627;BME280;69982;51.758;5.784;2023-09-07T12:40:36;101763.83;;;35.83;29.95
80627;BME280;69982;51.758;5.784;2023-09-07T12:43:02;101765.62;;;35.92;29.75
80627;BME280;69982;51.758;5.784;2023-09-07T12:45:29;101761.26;;;35.98;29.51
80627;BME280;69982;51.758;5.784;2023-09-07T12:47:55;101760.61;;;36.06;29.49
80627;BME280;69982;51.758;5.784;2023-09-07T12:50:22;101755.58;;;36.20;28.92
80627;BME280;69982;51.758;5.784;2023-09-07T12:52:49;101755.63;;;36.32;28.72